createdAt,value
2022-08-03T00:01:05.963Z,98131.91
2022-08-03T00:03:36.706Z,98133.88
2022-08-03T00:06:07.407Z,98132.19
2022-08-03T00:08:40.091Z,98132.06
2022-08-03T00:11:10.612Z,98129.00
2022-08-03T00:13:40.909Z,98128.38
2022-08-03T00:16:14.109Z,98129.41
2022-08-03T00:18:44.726Z,98128.28
2022-08-03T00:21:15.703Z,98124.31
2022-08-03T00:23:51.788Z,98129.47
2022-08-03T00:26:23.259Z,98127.38
2022-08-03T00:28:53.718Z,98126.66
2022-08-03T00:31:40.051Z,98121.97
2022-08-03T00:34:16.347Z,98128.38
2022-08-03T00:36:46.361Z,98122.81
2022-08-03T00:39:16.397Z,98128.81
2022-08-03T00:41:46.457Z,98129.94
2022-08-03T00:44:16.475Z,98124.53
2022-08-03T00:46:49.056Z,98123.91
2022-08-03T00:49:19.226Z,98128.13
2022-08-03T00:51:50.282Z,98127.34
2022-08-03T00:54:21.576Z,98126.16
2022-08-03T00:57:00.345Z,98128.25
2022-08-03T00:59:30.960Z,98125.53
2022-08-03T01:02:03.762Z,98124.81
2022-08-03T01:04:33.822Z,98123.88
2022-08-03T01:07:15.827Z,98126.94
2022-08-03T01:10:03.466Z,98121.72
2022-08-03T01:12:45.480Z,98129.19
2022-08-03T01:15:28.121Z,98119.34
2022-08-03T01:18:09.308Z,98121.97
2022-08-03T01:20:46.602Z,98120.66
2022-08-03T01:23:40.105Z,98111.28
2022-08-03T01:26:30.824Z,98112.09
2022-08-03T01:29:25.090Z,98110.97
2022-08-03T01:32:54.525Z,98114.38
2022-08-03T01:35:03.823Z,98098.63
2022-08-03T01:37:43.537Z,98099.59
2022-08-03T01:40:17.029Z,98097.13
2022-08-03T01:42:50.537Z,98089.56
2022-08-03T01:45:24.542Z,98090.03
2022-08-03T01:47:58.891Z,98094.03
2022-08-03T01:50:34.450Z,98099.19
2022-08-03T01:53:07.962Z,98099.63
2022-08-03T01:55:40.797Z,98093.25
2022-08-03T01:58:11.846Z,98095.19
2022-08-03T02:00:48.123Z,98087.66
2022-08-03T02:03:24.201Z,98096.63
2022-08-03T02:06:40.971Z,98086.78
2022-08-03T02:08:51.128Z,98091.06
2022-08-03T02:11:21.357Z,98090.03
2022-08-03T02:13:54.397Z,98083.34
2022-08-03T02:16:29.292Z,98085.81
2022-08-03T02:19:04.252Z,98089.41
2022-08-03T02:21:57.216Z,98092.97
2022-08-03T02:24:30.209Z,98090.84
2022-08-03T02:27:01.990Z,98088.97
2022-08-03T02:29:38.772Z,98091.41
2022-08-03T02:32:15.599Z,98092.44
2022-08-03T02:34:51.615Z,98090.84
2022-08-03T02:37:23.877Z,98096.09
2022-08-03T02:39:57.518Z,98093.88
2022-08-03T02:42:29.776Z,98093.66
2022-08-03T02:45:04.731Z,98097.47
2022-08-03T02:47:54.132Z,98086.50
2022-08-03T02:50:30.447Z,98088.97
2022-08-03T02:53:02.821Z,98088.97
2022-08-03T02:55:36.235Z,98083.94
2022-08-03T02:58:16.097Z,98089.88
2022-08-03T03:00:48.077Z,98083.50
2022-08-03T03:03:18.670Z,98083.19
2022-08-03T03:05:57.352Z,98083.19
2022-08-03T03:08:31.166Z,98087.88
2022-08-03T03:11:04.313Z,98093.34
2022-08-03T03:13:35.368Z,98087.09
2022-08-03T03:16:09.032Z,98087.31
2022-08-03T03:18:41.977Z,98089.00
2022-08-03T03:21:17.157Z,98088.44
2022-08-03T03:23:49.512Z,98081.16
2022-08-03T03:26:19.949Z,98081.28
2022-08-03T03:28:50.495Z,98076.34
2022-08-03T03:31:20.517Z,98072.47
2022-08-03T03:33:51.146Z,98079.28
2022-08-03T03:36:23.746Z,98082.97
2022-08-03T03:38:53.930Z,98078.25
2022-08-03T03:41:23.989Z,98075.56
2022-08-03T03:43:54.114Z,98082.31
2022-08-03T03:46:24.390Z,98072.78
2022-08-03T03:48:54.673Z,98077.03
2022-08-03T03:51:27.375Z,98078.59
2022-08-03T03:53:59.729Z,98080.59
2022-08-03T03:56:31.411Z,98085.53
2022-08-03T03:59:01.784Z,98087.53
2022-08-03T04:01:32.088Z,98083.97
2022-08-03T04:04:22.935Z,98080.72
2022-08-03T04:07:07.998Z,98087.44
2022-08-03T04:09:53.761Z,98087.00
2022-08-03T04:12:30.891Z,98088.09
2022-08-03T04:15:03.977Z,98082.97
2022-08-03T04:17:35.598Z,98089.22
2022-08-03T04:20:08.264Z,98100.38
2022-08-03T04:22:42.427Z,98094.25
2022-08-03T04:25:19.450Z,98091.47
2022-08-03T04:28:29.435Z,98092.25
2022-08-03T04:30:52.531Z,98092.25
2022-08-03T04:33:25.151Z,98093.69
2022-08-03T04:36:04.547Z,98099.03
2022-08-03T04:38:45.023Z,98102.16
2022-08-03T04:41:16.405Z,98111.22
2022-08-03T04:43:47.533Z,98114.66
2022-08-03T04:46:18.889Z,98114.19
2022-08-03T04:48:49.192Z,98112.94
2022-08-03T04:51:19.881Z,98120.44
2022-08-03T04:53:52.730Z,98118.78
2022-08-03T04:56:22.922Z,98118.50
2022-08-03T04:58:53.091Z,98116.94
2022-08-03T05:01:23.490Z,98133.19
2022-08-03T05:03:53.518Z,98138.75
2022-08-03T05:06:25.177Z,98129.13
2022-08-03T05:08:58.056Z,98135.50
2022-08-03T05:11:28.016Z,98138.06
2022-08-03T05:13:58.765Z,98134.88
2022-08-03T05:16:28.734Z,98135.97
2022-08-03T05:18:58.675Z,98135.66
2022-08-03T05:21:52.136Z,98137.72
2022-08-03T05:24:21.246Z,98147.06
2022-08-03T05:26:51.233Z,98139.78
2022-08-03T05:29:21.200Z,98145.53
2022-08-03T05:31:51.234Z,98138.88
2022-08-03T05:34:21.169Z,98136.66
2022-08-03T05:36:51.141Z,98140.34
2022-08-03T05:39:23.676Z,98144.97
2022-08-03T05:41:53.622Z,98147.00
2022-08-03T05:44:25.582Z,98139.91
2022-08-03T05:46:55.735Z,98135.09
2022-08-03T05:49:25.938Z,98144.63
2022-08-03T05:52:11.837Z,98136.94
2022-08-03T05:54:56.710Z,98135.13
2022-08-03T05:57:28.061Z,98133.47
2022-08-03T05:59:58.822Z,98135.81
2022-08-03T06:02:29.401Z,98130.81
2022-08-03T06:04:59.413Z,98123.50
2022-08-03T06:07:29.682Z,98131.19
2022-08-03T06:10:36.726Z,98123.50
2022-08-03T06:12:53.566Z,98124.94
2022-08-03T06:15:24.039Z,98130.00
2022-08-03T06:18:01.464Z,98131.34
2022-08-03T06:20:32.392Z,98126.56
2022-08-03T06:23:02.869Z,98134.72
2022-08-03T06:25:35.488Z,98137.81
2022-08-03T06:28:05.457Z,98133.53
2022-08-03T06:30:35.682Z,98129.06
2022-08-03T06:33:05.672Z,98130.63
2022-08-03T06:35:38.648Z,98130.19
2022-08-03T06:38:13.051Z,98129.38
2022-08-03T06:40:45.667Z,98130.59
2022-08-03T06:43:18.866Z,98136.66
2022-08-03T06:45:49.350Z,98137.28
2022-08-03T06:48:19.363Z,98130.59
2022-08-03T06:50:49.374Z,98141.22
2022-08-03T06:53:21.260Z,98138.63
2022-08-03T06:55:55.138Z,98144.13
2022-08-03T06:58:25.669Z,98138.03
2022-08-03T07:00:56.210Z,98143.25
2022-08-03T07:03:26.418Z,98141.97
2022-08-03T07:05:56.619Z,98146.75
2022-08-03T07:08:33.818Z,98149.38
2022-08-03T07:11:08.030Z,98140.75
2022-08-03T07:13:38.118Z,98140.94
2022-08-03T07:16:09.000Z,98138.09
2022-08-03T07:18:41.865Z,98139.91
2022-08-03T07:21:12.837Z,98136.09
2022-08-03T07:23:42.910Z,98131.22
2022-08-03T07:26:15.492Z,98132.75
2022-08-03T07:28:45.481Z,98139.34
2022-08-03T07:31:15.503Z,98136.09
2022-08-03T07:33:46.203Z,98126.69
2022-08-03T07:36:16.201Z,98131.03
2022-08-03T07:38:46.420Z,98132.91
2022-08-03T07:41:19.446Z,98133.59
2022-08-03T07:43:49.403Z,98134.44
2022-08-03T07:46:19.400Z,98143.00
2022-08-03T07:48:49.623Z,98140.06
2022-08-03T07:51:19.620Z,98133.22
2022-08-03T07:53:49.861Z,98136.69
2022-08-03T07:56:25.595Z,98128.81
2022-08-03T07:58:57.217Z,98126.25
2022-08-03T08:01:27.502Z,98133.69
2022-08-03T08:03:57.709Z,98118.06
2022-08-03T08:06:28.112Z,98119.41
2022-08-03T08:09:01.817Z,98118.69
2022-08-03T08:11:39.677Z,98114.31
2022-08-03T08:14:10.074Z,98112.72
2022-08-03T08:16:40.112Z,98113.63
2022-08-03T08:19:10.141Z,98119.94
2022-08-03T08:21:53.813Z,98118.16
2022-08-03T08:24:34.162Z,98114.38
2022-08-03T08:27:08.799Z,98116.47
2022-08-03T08:29:38.879Z,98112.06
2022-08-03T08:32:18.174Z,98116.00
2022-08-03T08:34:48.349Z,98107.59
2022-08-03T08:37:18.333Z,98108.59
2022-08-03T08:39:48.466Z,98102.91
2022-08-03T08:42:21.400Z,98110.44
2022-08-03T08:44:51.478Z,98109.50
2022-08-03T08:47:27.127Z,98107.56
2022-08-03T08:50:09.229Z,98106.91
2022-08-03T08:52:44.342Z,98107.94
2022-08-03T08:55:18.826Z,98104.59
2022-08-03T08:57:55.176Z,98104.16
2022-08-03T09:00:25.179Z,98101.50
2022-08-03T09:02:55.317Z,98103.03
2022-08-03T09:05:41.559Z,98095.38
2022-08-03T09:08:15.857Z,98102.28
2022-08-03T09:10:45.850Z,98106.06
2022-08-03T09:13:19.228Z,98100.78
2022-08-03T09:15:57.190Z,98097.41
2022-08-03T09:18:33.418Z,98102.25
2022-08-03T09:21:31.040Z,98095.75
2022-08-03T09:24:06.160Z,98096.28
2022-08-03T09:26:39.328Z,98096.53
2022-08-03T09:29:15.410Z,98087.28
2022-08-03T09:31:48.611Z,98086.91
2022-08-03T09:34:21.012Z,98085.34
2022-08-03T09:36:54.170Z,98084.41
2022-08-03T09:39:41.631Z,98083.69
2022-08-03T09:42:14.894Z,98081.06
2022-08-03T09:44:50.629Z,98083.22
2022-08-03T09:47:32.969Z,98078.34
2022-08-03T09:50:04.919Z,98079.16
2022-08-03T09:52:52.094Z,98082.41
2022-08-03T09:56:34.346Z,98078.09
2022-08-03T09:58:15.048Z,98075.91
2022-08-03T10:01:01.623Z,98071.28
2022-08-03T10:03:36.183Z,98073.38
2022-08-03T10:06:28.775Z,98074.50
2022-08-03T10:09:10.652Z,98077.06
2022-08-03T10:11:42.486Z,98071.28
2022-08-03T10:14:19.168Z,98065.16
2022-08-03T10:16:52.996Z,98061.47
2022-08-03T10:19:23.127Z,98060.75
2022-08-03T10:21:58.266Z,98064.28
2022-08-03T10:24:32.278Z,98060.97
2022-08-03T10:27:07.223Z,98059.19
2022-08-03T10:29:41.815Z,98048.03
2022-08-03T10:32:23.145Z,98052.28
2022-08-03T10:35:00.361Z,98054.59
2022-08-03T10:37:37.189Z,98057.81
2022-08-03T10:40:16.193Z,98046.69
2022-08-03T10:43:06.208Z,98042.44
2022-08-03T10:45:43.981Z,98034.69
2022-08-03T10:48:17.520Z,98038.69
2022-08-03T10:50:48.913Z,98034.75
2022-08-03T10:53:36.344Z,98036.88
2022-08-03T10:56:24.651Z,98029.66
2022-08-03T10:59:10.615Z,98031.00
2022-08-03T11:02:01.343Z,98028.97
2022-08-03T11:04:33.981Z,98027.16
2022-08-03T11:07:24.309Z,98023.88
2022-08-03T11:09:56.236Z,98021.56
2022-08-03T11:12:31.398Z,98027.22
2022-08-03T11:15:04.631Z,98025.13
2022-08-03T11:17:46.583Z,98023.88
2022-08-03T11:20:51.736Z,98015.03
2022-08-03T11:24:04.235Z,98014.78
2022-08-03T11:26:33.905Z,98014.22
2022-08-03T11:29:30.719Z,98012.94
2022-08-03T11:32:01.337Z,98012.38
2022-08-03T11:34:31.380Z,98010.44
2022-08-03T11:37:33.346Z,98010.88
2022-08-03T11:40:04.072Z,98001.94
2022-08-03T11:42:50.180Z,97999.97
2022-08-03T11:45:20.225Z,98002.56
2022-08-03T11:47:55.686Z,98000.13
2022-08-03T11:50:25.951Z,98000.16
2022-08-03T11:52:58.601Z,97998.13
2022-08-03T11:55:30.715Z,98001.22
2022-08-03T11:59:15.187Z,97989.44
2022-08-03T12:00:53.825Z,97996.31
2022-08-03T12:03:24.153Z,97994.00
2022-08-03T12:05:56.481Z,97984.59
2022-08-03T12:08:38.064Z,97979.41
2022-08-03T12:11:11.455Z,97978.41
2022-08-03T12:14:45.161Z,97978.47
2022-08-03T12:16:35.137Z,97981.63
2022-08-03T12:19:08.285Z,97982.25
2022-08-03T12:21:38.274Z,97981.53
2022-08-03T12:24:12.331Z,97988.41
2022-08-03T12:26:58.846Z,97981.59
2022-08-03T12:29:30.330Z,97981.88
2022-08-03T12:32:00.460Z,97976.63
2022-08-03T12:34:48.840Z,97976.16
2022-08-03T12:37:23.720Z,97982.28
2022-08-03T12:40:02.382Z,97975.00
2022-08-03T12:42:37.201Z,97967.91
2022-08-03T12:45:26.460Z,97961.53
2022-08-03T12:47:59.028Z,97964.34
2022-08-03T12:50:34.171Z,97947.75
2022-08-03T12:53:08.937Z,97951.69
2022-08-03T12:56:05.124Z,97960.75
2022-08-03T12:58:36.929Z,97960.94
2022-08-03T13:01:10.742Z,97952.69
2022-08-03T13:03:46.021Z,97952.19
2022-08-03T13:06:23.438Z,97950.34
2022-08-03T13:09:04.397Z,97954.72
2022-08-03T13:12:08.310Z,97953.34
2022-08-03T13:14:38.620Z,97949.28
2022-08-03T13:17:09.399Z,97949.59
2022-08-03T13:19:40.702Z,97951.94
2022-08-03T13:22:19.052Z,97956.25
2022-08-03T13:24:51.514Z,97948.16
2022-08-03T13:28:04.705Z,97948.38
2022-08-03T13:30:29.883Z,97945.16
2022-08-03T13:33:01.394Z,97939.78
2022-08-03T13:35:31.362Z,97942.06
2022-08-03T13:38:01.397Z,97937.25
2022-08-03T13:40:35.635Z,97936.66
2022-08-03T13:43:14.268Z,97932.91
2022-08-03T13:45:49.353Z,97931.53
2022-08-03T13:48:37.229Z,97933.59
2022-08-03T13:51:11.782Z,97925.69
2022-08-03T13:53:54.314Z,97930.38
2022-08-03T13:56:24.302Z,97919.66
2022-08-03T13:58:57.887Z,97929.34
2022-08-03T14:01:54.282Z,97925.56
2022-08-03T14:04:22.266Z,97920.19
2022-08-03T14:06:52.814Z,97919.16
2022-08-03T14:09:22.891Z,97910.06
2022-08-03T14:12:07.761Z,97919.47
2022-08-03T14:14:41.653Z,97926.59
2022-08-03T14:17:11.694Z,97915.50
2022-08-03T14:19:53.311Z,97914.38
2022-08-03T14:22:24.608Z,97910.88
2022-08-03T14:24:54.562Z,97898.38
2022-08-03T14:27:24.493Z,97900.81
2022-08-03T14:29:59.755Z,97898.91
2022-08-03T14:32:30.042Z,97899.19
2022-08-03T14:35:00.119Z,97891.59
2022-08-03T14:37:30.068Z,97897.78
2022-08-03T14:40:00.992Z,97895.16
2022-08-03T14:42:31.401Z,97898.91
2022-08-03T14:45:09.015Z,97894.44
2022-08-03T14:50:29.295Z,97896.75
2022-08-03T14:50:41.939Z,97886.31
2022-08-03T14:53:13.277Z,97885.44
2022-08-03T14:55:50.276Z,97887.34
2022-08-03T14:58:22.221Z,97885.00
2022-08-03T15:00:57.420Z,97884.03
2022-08-03T15:03:28.584Z,97874.88
2022-08-03T15:06:00.142Z,97872.34
2022-08-03T15:08:31.033Z,97869.00
2022-08-03T15:11:01.011Z,97878.69
2022-08-03T15:13:30.969Z,97864.16
2022-08-03T15:16:03.600Z,97861.09
2022-08-03T15:18:34.176Z,97860.94
2022-08-03T15:21:04.109Z,97854.91
2022-08-03T15:23:34.135Z,97858.38
2022-08-03T15:26:31.526Z,97850.50
2022-08-03T15:28:54.356Z,97851.88
2022-08-03T15:31:27.710Z,97849.16
2022-08-03T15:33:57.755Z,97842.28
2022-08-03T15:36:28.051Z,97846.16
2022-08-03T15:38:58.089Z,97843.94
2022-08-03T15:41:28.167Z,97839.56
2022-08-03T15:43:58.163Z,97846.66
2022-08-03T15:46:30.931Z,97837.66
2022-08-03T15:49:01.006Z,97841.31
2022-08-03T15:51:30.986Z,97836.56
2022-08-03T15:54:00.984Z,97843.63
2022-08-03T15:56:31.166Z,97843.50
2022-08-03T15:59:13.247Z,97838.00
2022-08-03T16:01:46.635Z,97839.13
2022-08-03T16:04:16.683Z,97837.97
2022-08-03T16:06:46.691Z,97831.78
2022-08-03T16:09:24.294Z,97828.59
2022-08-03T16:12:16.142Z,97823.09
2022-08-03T16:14:55.213Z,97819.00
2022-08-03T16:17:28.153Z,97818.84
2022-08-03T16:19:58.174Z,97821.84
2022-08-03T16:22:28.794Z,97816.38
2022-08-03T16:25:00.236Z,97818.72
2022-08-03T16:27:56.627Z,97815.53
2022-08-03T16:30:22.335Z,97815.69
2022-08-03T16:32:55.018Z,97815.94
2022-08-03T16:35:25.021Z,97806.94
2022-08-03T16:37:56.398Z,97813.13
2022-08-03T16:40:27.971Z,97820.53
2022-08-03T16:42:58.080Z,97810.19
2022-08-03T16:45:28.455Z,97812.97
2022-08-03T16:48:01.663Z,97809.94
2022-08-03T16:50:37.108Z,97796.53
2022-08-03T16:53:09.742Z,97804.00
2022-08-03T16:55:52.066Z,97799.25
2022-08-03T16:58:41.254Z,97797.88
2022-08-03T17:01:21.485Z,97802.06
2022-08-03T17:04:03.565Z,97796.69
2022-08-03T17:06:44.900Z,97792.97
2022-08-03T17:09:20.561Z,97791.56
2022-08-03T17:11:53.936Z,97787.31
2022-08-03T17:14:28.461Z,97790.66
2022-08-03T17:17:04.058Z,97793.94
2022-08-03T17:19:47.071Z,97792.34
2022-08-03T17:22:22.681Z,97796.06
2022-08-03T17:24:56.887Z,97796.00
2022-08-03T17:28:43.101Z,97793.72
2022-08-03T17:30:21.687Z,97792.88
2022-08-03T17:32:57.673Z,97798.44
2022-08-03T17:35:35.516Z,97801.69
2022-08-03T17:38:13.854Z,97804.72
2022-08-03T17:40:50.308Z,97800.63
2022-08-03T17:44:13.111Z,97804.31
2022-08-03T17:46:12.843Z,97806.66
2022-08-03T17:48:43.588Z,97814.16
2022-08-03T17:51:22.554Z,97811.91
2022-08-03T17:54:18.224Z,97815.63
2022-08-03T17:57:21.915Z,97815.25
2022-08-03T18:00:25.193Z,97815.03
2022-08-03T18:03:18.423Z,97811.94
2022-08-03T18:06:11.022Z,97822.44
2022-08-03T18:08:54.101Z,97823.28
2022-08-03T18:11:35.484Z,97823.53
2022-08-03T18:14:18.738Z,97822.59
2022-08-03T18:17:00.269Z,97828.19
2022-08-03T18:20:02.433Z,97824.66
2022-08-03T18:22:25.284Z,97829.97
2022-08-03T18:24:58.982Z,97815.56
2022-08-03T18:27:42.512Z,97815.59
2022-08-03T18:30:17.148Z,97822.25
2022-08-03T18:33:00.720Z,97826.41
2022-08-03T18:35:53.256Z,97818.38
2022-08-03T18:38:25.084Z,97811.50
2022-08-03T18:40:58.069Z,97809.81
2022-08-03T18:43:46.620Z,97823.88
2022-08-03T18:46:36.296Z,97822.28
2022-08-03T18:49:24.306Z,97826.06
2022-08-03T18:52:12.260Z,97818.00
2022-08-03T18:55:02.839Z,97818.22
2022-08-03T18:57:51.494Z,97816.88
2022-08-03T19:00:24.454Z,97818.25
2022-08-03T19:03:20.672Z,97819.81
2022-08-03T19:06:05.898Z,97819.88
2022-08-03T19:08:48.705Z,97823.88
2022-08-03T19:11:28.193Z,97827.41
2022-08-03T19:14:04.996Z,97830.31
2022-08-03T19:16:44.671Z,97828.88
2022-08-03T19:19:15.629Z,97825.94
2022-08-03T19:21:47.867Z,97829.69
2022-08-03T19:24:23.566Z,97831.59
2022-08-03T19:26:58.404Z,97838.66
2022-08-03T19:29:58.962Z,97843.19
2022-08-03T19:32:26.713Z,97848.28
2022-08-03T19:34:57.471Z,97852.78
2022-08-03T19:37:38.292Z,97844.72
2022-08-03T19:40:12.609Z,97850.78
2022-08-03T19:42:48.718Z,97845.75
2022-08-03T19:46:05.013Z,97848.28
2022-08-03T19:48:36.740Z,97852.00
2022-08-03T19:51:12.262Z,97858.09
2022-08-03T19:53:47.425Z,97849.59
2022-08-03T19:56:22.053Z,97847.66
2022-08-03T19:58:56.898Z,97853.97
2022-08-03T20:01:31.038Z,97853.97
2022-08-03T20:04:21.475Z,97854.72
2022-08-03T20:06:57.097Z,97860.72
2022-08-03T20:09:30.425Z,97861.31
2022-08-03T20:12:00.762Z,97859.47
2022-08-03T20:14:31.698Z,97858.56
2022-08-03T20:17:04.507Z,97856.34
2022-08-03T20:19:39.346Z,97857.78
2022-08-03T20:22:14.511Z,97854.19
2022-08-03T20:24:53.081Z,97858.94
2022-08-03T20:27:30.202Z,97857.72
2022-08-03T20:30:06.936Z,97858.09
2022-08-03T20:32:41.818Z,97864.19
2022-08-03T20:35:13.125Z,97867.53
2022-08-03T20:37:44.002Z,97866.47
2022-08-03T20:40:15.226Z,97871.66
2022-08-03T20:42:45.371Z,97858.72
2022-08-03T20:46:00.027Z,97855.56
2022-08-03T20:48:09.383Z,97866.91
2022-08-03T20:50:40.699Z,97864.94
2022-08-03T20:53:14.061Z,97866.63
2022-08-03T20:56:03.054Z,97858.06
2022-08-03T20:58:34.036Z,97862.63
2022-08-03T21:01:06.662Z,97860.63
2022-08-03T21:03:41.046Z,97868.16
2022-08-03T21:06:27.627Z,97857.53
2022-08-03T21:09:06.804Z,97864.41
2022-08-03T21:11:43.354Z,97858.75
2022-08-03T21:14:22.944Z,97860.44
2022-08-03T21:16:54.442Z,97859.50
2022-08-03T21:19:33.740Z,97865.00
2022-08-03T21:22:10.390Z,97868.16
2022-08-03T21:24:44.794Z,97871.06
2022-08-03T21:27:15.709Z,97870.53
2022-08-03T21:29:53.400Z,97866.19
2022-08-03T21:32:30.027Z,97869.13
2022-08-03T21:35:07.048Z,97861.59
2022-08-03T21:37:37.286Z,97860.81
2022-08-03T21:40:09.258Z,97859.59
2022-08-03T21:42:39.438Z,97856.72
2022-08-03T21:45:17.673Z,97858.88
2022-08-03T21:47:49.785Z,97855.81
2022-08-03T21:50:23.499Z,97859.75
2022-08-03T21:52:55.177Z,97866.84
2022-08-03T21:55:31.634Z,97864.31
2022-08-03T21:58:07.326Z,97865.88
2022-08-03T22:00:38.165Z,97870.31
2022-08-03T22:03:15.334Z,97862.84
2022-08-03T22:05:50.951Z,97862.88
2022-08-03T22:08:21.836Z,97865.47
2022-08-03T22:10:52.045Z,97865.47
2022-08-03T22:13:43.049Z,97856.94
2022-08-03T22:16:14.682Z,97851.03
2022-08-03T22:18:47.613Z,97863.56
2022-08-03T22:21:28.151Z,97863.03
2022-08-03T22:24:10.061Z,97859.94
2022-08-03T22:27:05.658Z,97865.69
2022-08-03T22:29:39.569Z,97869.34
2022-08-03T22:32:10.422Z,97868.81
2022-08-03T22:34:42.860Z,97867.28
2022-08-03T22:37:20.021Z,97865.47
2022-08-03T22:39:54.191Z,97868.31
2022-08-03T22:42:26.928Z,97871.72
2022-08-03T22:44:58.235Z,97873.81
2022-08-03T22:47:28.452Z,97869.94
2022-08-03T22:50:33.577Z,97865.28
2022-08-03T22:52:54.060Z,97868.91
2022-08-03T22:55:26.735Z,97875.16
2022-08-03T22:57:56.975Z,97881.13
2022-08-03T23:00:27.830Z,97882.94
2022-08-03T23:03:02.380Z,97880.13
2022-08-03T23:06:00.652Z,97883.50
2022-08-03T23:08:34.168Z,97883.78
2022-08-03T23:11:09.255Z,97884.00
2022-08-03T23:13:43.829Z,97883.25
2022-08-03T23:16:14.416Z,97883.00
2022-08-03T23:18:48.687Z,97880.41
2022-08-03T23:21:53.466Z,97884.81
2022-08-03T23:24:29.797Z,97881.47
2022-08-03T23:27:00.883Z,97881.97
2022-08-03T23:29:33.861Z,97886.13
2022-08-03T23:32:05.537Z,97877.56
2022-08-03T23:34:49.067Z,97875.75
2022-08-03T23:37:21.314Z,97883.28
2022-08-03T23:39:55.841Z,97883.28
2022-08-03T23:42:26.892Z,97886.38
2022-08-03T23:45:05.919Z,97886.63
2022-08-03T23:47:46.491Z,97879.91
2022-08-03T23:50:18.389Z,97879.41
2022-08-03T23:53:04.405Z,97885.31
2022-08-03T23:55:56.452Z,97874.72
2022-08-03T23:58:52.794Z,97887.63
